createdAt,value
2023-09-02T00:01:07.353Z,16.80
2023-09-02T00:04:49.229Z,16.70
2023-09-02T00:08:31.015Z,16.70
2023-09-02T00:12:12.895Z,16.60
2023-09-02T00:15:54.783Z,16.60
2023-09-02T00:19:36.612Z,16.50
2023-09-02T00:23:18.560Z,16.40
2023-09-02T00:27:00.538Z,16.40
2023-09-02T00:30:42.344Z,16.30
2023-09-02T00:34:24.198Z,16.20
2023-09-02T00:38:06.135Z,16.20
2023-09-02T00:41:53.525Z,16.10
2023-09-02T00:45:35.986Z,16.00
2023-09-02T00:49:18.029Z,16.00
2023-09-02T00:52:59.836Z,15.90
2023-09-02T00:56:41.925Z,15.90
2023-09-02T01:00:24.015Z,15.90
2023-09-02T01:04:06.070Z,15.80
2023-09-02T01:07:48.476Z,15.70
2023-09-02T01:11:30.391Z,15.70
2023-09-02T01:15:12.191Z,15.70
2023-09-02T01:18:54.200Z,15.60
2023-09-02T01:22:52.578Z,15.60
2023-09-02T01:27:04.597Z,15.50
2023-09-02T01:30:50.026Z,15.50
2023-09-02T01:34:34.819Z,15.40
2023-09-02T01:38:17.016Z,15.30
2023-09-02T01:42:01.220Z,15.20
2023-09-02T01:45:43.673Z,15.20
2023-09-02T01:49:26.164Z,15.10
2023-09-02T01:53:10.090Z,15.10
2023-09-02T01:56:52.710Z,15.00
2023-09-02T02:00:34.881Z,14.90
2023-09-02T02:04:29.299Z,14.80
2023-09-02T02:08:17.567Z,14.70
2023-09-02T02:12:02.061Z,14.70
2023-09-02T02:15:43.943Z,14.60
2023-09-02T02:19:25.843Z,14.60
2023-09-02T02:23:08.347Z,14.60
2023-09-02T02:26:50.194Z,14.50
2023-09-02T02:30:31.989Z,14.50
2023-09-02T02:34:13.774Z,14.40
2023-09-02T02:37:57.060Z,14.30
2023-09-02T02:41:38.866Z,14.30
2023-09-02T02:45:20.833Z,14.30
2023-09-02T02:49:03.147Z,14.20
2023-09-02T02:52:44.964Z,14.20
2023-09-02T02:56:26.819Z,14.20
2023-09-02T03:00:10.124Z,14.20
2023-09-02T03:03:51.934Z,14.20
2023-09-02T03:07:33.733Z,14.10
2023-09-02T03:11:15.704Z,14.10
2023-09-02T03:14:57.486Z,14.00
2023-09-02T03:18:39.329Z,14.00
2023-09-02T03:22:21.314Z,13.90
2023-09-02T03:26:10.364Z,13.90
2023-09-02T03:29:52.704Z,13.80
2023-09-02T03:33:35.086Z,13.80
2023-09-02T03:37:16.923Z,13.70
2023-09-02T03:40:59.453Z,13.70
2023-09-02T03:44:41.279Z,13.60
2023-09-02T03:48:23.170Z,13.60
2023-09-02T03:52:05.035Z,13.60
2023-09-02T03:55:46.813Z,13.50
2023-09-02T03:59:28.601Z,13.50
2023-09-02T04:03:10.710Z,13.50
2023-09-02T04:06:52.661Z,13.40
2023-09-02T04:10:34.532Z,13.30
2023-09-02T04:14:16.372Z,13.20
2023-09-02T04:17:58.248Z,13.20
2023-09-02T04:21:40.986Z,13.20
2023-09-02T04:25:22.900Z,13.20
2023-09-02T04:29:05.081Z,13.10
2023-09-02T04:32:50.538Z,13.10
2023-09-02T04:36:32.446Z,13.10
2023-09-02T04:40:15.363Z,13.00
2023-09-02T04:43:57.157Z,13.00
2023-09-02T04:47:38.992Z,13.00
2023-09-02T04:51:21.148Z,13.00
2023-09-02T04:55:02.968Z,13.00
2023-09-02T04:58:44.869Z,13.10
2023-09-02T05:02:26.744Z,13.10
2023-09-02T05:06:11.615Z,13.20
2023-09-02T05:09:55.461Z,13.20
2023-09-02T05:13:37.344Z,13.30
2023-09-02T05:17:19.129Z,13.30
2023-09-02T05:21:00.899Z,13.40
2023-09-02T05:24:42.739Z,13.50
2023-09-02T05:28:25.632Z,13.60
2023-09-02T05:32:08.895Z,13.60
2023-09-02T05:35:51.380Z,13.70
2023-09-02T05:39:33.327Z,13.80
2023-09-02T05:43:15.249Z,13.80
2023-09-02T05:46:57.096Z,13.90
2023-09-02T05:50:38.948Z,13.90
2023-09-02T05:54:20.738Z,13.90
2023-09-02T05:58:02.555Z,14.00
2023-09-02T06:01:44.555Z,14.00
2023-09-02T06:05:26.480Z,14.10
2023-09-02T06:09:10.051Z,14.10
2023-09-02T06:12:51.888Z,14.20
2023-09-02T06:16:33.716Z,14.20
2023-09-02T06:20:17.342Z,14.30
2023-09-02T06:23:59.149Z,14.30
2023-09-02T06:27:40.968Z,14.40
2023-09-02T06:31:22.768Z,14.40
2023-09-02T06:35:06.363Z,14.40
2023-09-02T06:38:48.465Z,14.50
2023-09-02T06:42:30.564Z,14.50
2023-09-02T06:46:17.908Z,14.60
2023-09-02T06:49:59.938Z,14.60
2023-09-02T06:53:42.433Z,14.70
2023-09-02T06:57:24.284Z,14.80
2023-09-02T07:01:06.160Z,14.80
2023-09-02T07:04:51.283Z,14.90
2023-09-02T07:08:33.243Z,15.00
2023-09-02T07:12:16.468Z,15.00
2023-09-02T07:16:01.855Z,15.00
2023-09-02T07:19:43.756Z,15.10
2023-09-02T07:23:25.604Z,15.20
2023-09-02T07:27:08.425Z,15.20
2023-09-02T07:30:50.293Z,15.20
2023-09-02T07:34:35.565Z,15.30
2023-09-02T07:38:17.421Z,15.40
2023-09-02T07:41:59.217Z,15.50
2023-09-02T07:45:41.201Z,15.60
2023-09-02T07:49:23.147Z,15.70
2023-09-02T07:53:05.000Z,15.80
2023-09-02T07:56:46.841Z,15.90
2023-09-02T08:00:29.661Z,16.00
2023-09-02T08:04:11.510Z,16.10
2023-09-02T08:07:53.278Z,16.30
2023-09-02T08:11:35.186Z,16.40
2023-09-02T08:15:17.014Z,16.50
2023-09-02T08:18:58.817Z,16.70
2023-09-02T08:22:43.941Z,16.80
2023-09-02T08:26:25.774Z,16.90
2023-09-02T08:30:08.148Z,17.00
2023-09-02T08:33:50.002Z,17.10
2023-09-02T08:37:32.460Z,17.20
2023-09-02T08:41:27.906Z,17.50
2023-09-02T08:45:10.460Z,17.70
2023-09-02T08:48:53.434Z,17.90
2023-09-02T08:52:36.288Z,18.10
2023-09-02T08:56:18.202Z,18.30
2023-09-02T09:00:01.037Z,18.50
2023-09-02T09:03:46.302Z,18.80
2023-09-02T09:07:28.964Z,18.80
2023-09-02T09:11:12.418Z,18.90
2023-09-02T09:14:55.905Z,19.00
2023-09-02T09:18:38.001Z,19.10
2023-09-02T09:22:20.419Z,19.20
2023-09-02T09:26:03.970Z,19.40
2023-09-02T09:29:47.275Z,19.50
2023-09-02T09:33:29.055Z,19.50
2023-09-02T09:37:11.362Z,19.50
2023-09-02T09:40:53.167Z,19.50
2023-09-02T09:44:35.136Z,19.50
2023-09-02T09:48:17.192Z,19.50
2023-09-02T09:52:01.810Z,19.40
2023-09-02T09:55:44.283Z,19.50
2023-09-02T09:59:26.174Z,19.80
2023-09-02T10:03:08.136Z,20.20
2023-09-02T10:06:50.080Z,20.50
2023-09-02T10:10:38.853Z,20.70
2023-09-02T10:14:21.060Z,20.90
2023-09-02T10:18:04.965Z,21.10
2023-09-02T10:21:47.219Z,21.50
2023-09-02T10:25:35.364Z,22.00
2023-09-02T10:29:23.395Z,22.70
2023-09-02T10:33:15.668Z,23.50
2023-09-02T10:36:58.556Z,24.10
2023-09-02T10:40:45.272Z,24.40
2023-09-02T10:44:27.637Z,24.50
2023-09-02T10:48:11.452Z,24.30
2023-09-02T10:51:53.902Z,24.20
2023-09-02T10:56:01.136Z,24.40
2023-09-02T10:59:43.091Z,24.90
2023-09-02T11:03:49.076Z,25.00
2023-09-02T11:07:31.187Z,24.90
2023-09-02T11:11:32.657Z,24.90
2023-09-02T11:15:15.415Z,25.00
2023-09-02T11:18:57.545Z,25.00
2023-09-02T11:22:49.238Z,25.10
2023-09-02T11:26:31.179Z,25.20
2023-09-02T11:30:13.767Z,25.20
2023-09-02T11:34:01.486Z,25.00
2023-09-02T11:37:45.404Z,24.80
2023-09-02T11:41:27.730Z,24.60
2023-09-02T11:45:15.130Z,24.40
2023-09-02T11:48:57.035Z,24.40
2023-09-02T11:52:39.905Z,24.50
2023-09-02T11:56:32.942Z,24.90
2023-09-02T12:00:17.818Z,25.30
2023-09-02T12:03:59.718Z,25.60
2023-09-02T12:07:43.914Z,26.00
2023-09-02T12:11:25.792Z,26.70
2023-09-02T12:15:11.332Z,27.80
2023-09-02T12:19:09.264Z,28.60
2023-09-02T12:22:51.942Z,28.80
2023-09-02T12:26:47.246Z,29.00
2023-09-02T12:30:32.370Z,29.10
2023-09-02T12:34:14.273Z,28.80
2023-09-02T12:38:09.714Z,29.30
2023-09-02T12:41:51.799Z,30.20
2023-09-02T12:45:41.703Z,31.20
2023-09-02T12:49:23.580Z,32.00
2023-09-02T12:53:05.619Z,32.10
2023-09-02T12:56:54.124Z,31.50
2023-09-02T13:00:36.131Z,31.30
2023-09-02T13:04:17.952Z,31.10
2023-09-02T13:08:00.259Z,30.60
2023-09-02T13:11:42.064Z,30.00
2023-09-02T13:15:26.599Z,30.30
2023-09-02T13:19:08.686Z,30.70
2023-09-02T13:22:51.252Z,30.50
2023-09-02T13:26:33.384Z,30.00
2023-09-02T13:30:19.720Z,29.50
2023-09-02T13:34:04.307Z,29.30
2023-09-02T13:37:50.224Z,28.90
2023-09-02T13:41:32.125Z,29.00
2023-09-02T13:45:23.030Z,30.10
2023-09-02T13:49:05.490Z,31.30
2023-09-02T13:52:52.386Z,31.50
2023-09-02T13:56:34.691Z,31.40
2023-09-02T14:00:30.641Z,31.90
2023-09-02T14:04:12.875Z,31.70
2023-09-02T14:08:03.305Z,31.10
2023-09-02T14:11:47.959Z,31.50
2023-09-02T14:15:29.760Z,32.40
2023-09-02T14:19:12.447Z,33.20
2023-09-02T14:22:54.229Z,33.80
2023-09-02T14:26:36.117Z,34.30
2023-09-02T14:30:17.996Z,34.60
2023-09-02T14:33:59.836Z,34.70
2023-09-02T14:37:41.709Z,34.00
2023-09-02T14:41:23.524Z,33.20
2023-09-02T14:45:06.286Z,32.50
2023-09-02T14:48:48.242Z,32.70
2023-09-02T14:52:34.812Z,32.80
2023-09-02T14:56:16.693Z,32.30
2023-09-02T15:00:00.784Z,31.50
2023-09-02T15:03:45.134Z,30.50
2023-09-02T15:07:27.282Z,30.10
2023-09-02T15:11:09.097Z,30.50
2023-09-02T15:14:52.220Z,31.10
2023-09-02T15:18:34.369Z,31.60
2023-09-02T15:22:19.735Z,32.10
2023-09-02T15:26:02.656Z,32.30
2023-09-02T15:29:44.505Z,32.50
2023-09-02T15:33:28.272Z,32.50
2023-09-02T15:37:14.817Z,32.50
2023-09-02T15:40:56.665Z,32.30
2023-09-02T15:44:44.338Z,31.80
2023-09-02T15:48:26.122Z,31.00
2023-09-02T15:52:08.628Z,30.30
2023-09-02T15:55:50.447Z,29.70
2023-09-02T15:59:32.578Z,29.30
2023-09-02T16:03:14.484Z,29.00
2023-09-02T16:06:56.377Z,28.80
2023-09-02T16:10:38.315Z,28.60
2023-09-02T16:14:20.264Z,28.50
2023-09-02T16:18:02.119Z,28.40
2023-09-02T16:21:43.945Z,28.40
2023-09-02T16:25:25.788Z,28.30
2023-09-02T16:29:07.683Z,28.20
2023-09-02T16:32:50.032Z,28.00
2023-09-02T16:36:35.409Z,27.90
2023-09-02T16:40:18.921Z,27.80
2023-09-02T16:44:05.957Z,27.60
2023-09-02T16:47:52.904Z,27.40
2023-09-02T16:51:34.784Z,27.30
2023-09-02T16:55:19.780Z,27.20
2023-09-02T16:59:02.629Z,27.10
2023-09-02T17:02:52.916Z,27.00
2023-09-02T17:06:36.482Z,26.90
2023-09-02T17:10:33.775Z,26.80
2023-09-02T17:14:16.552Z,26.70
2023-09-02T17:18:00.502Z,26.70
2023-09-02T17:21:42.635Z,26.60
2023-09-02T17:25:24.708Z,26.50
2023-09-02T17:29:06.640Z,26.40
2023-09-02T17:32:49.768Z,26.40
2023-09-02T17:36:31.649Z,26.30
2023-09-02T17:40:14.662Z,26.20
2023-09-02T17:43:56.519Z,26.10
2023-09-02T17:47:39.855Z,26.10
2023-09-02T17:51:21.687Z,26.00
2023-09-02T17:55:04.156Z,25.90
2023-09-02T17:58:46.035Z,25.90
2023-09-02T18:02:27.957Z,25.80
2023-09-02T18:06:09.835Z,25.70
2023-09-02T18:09:51.654Z,25.60
2023-09-02T18:13:33.469Z,25.50
2023-09-02T18:17:15.997Z,25.40
2023-09-02T18:20:57.786Z,25.30
2023-09-02T18:24:39.639Z,25.20
2023-09-02T18:28:21.693Z,25.10
2023-09-02T18:32:03.752Z,25.00
2023-09-02T18:35:45.634Z,24.80
2023-09-02T18:39:27.515Z,24.80
2023-09-02T18:43:09.919Z,24.60
2023-09-02T18:46:51.891Z,24.50
2023-09-02T18:50:33.748Z,24.30
2023-09-02T18:54:15.590Z,24.20
2023-09-02T18:57:57.635Z,24.00
2023-09-02T19:01:39.435Z,23.90
2023-09-02T19:05:21.365Z,23.80
2023-09-02T19:09:04.179Z,23.70
2023-09-02T19:12:46.002Z,23.60
2023-09-02T19:16:27.846Z,23.40
2023-09-02T19:20:10.013Z,23.30
2023-09-02T19:23:53.666Z,23.20
2023-09-02T19:27:37.887Z,23.00
2023-09-02T19:31:19.712Z,22.90
2023-09-02T19:35:05.822Z,22.80
2023-09-02T19:38:47.586Z,22.70
2023-09-02T19:42:29.489Z,22.60
2023-09-02T19:46:11.628Z,22.50
2023-09-02T19:49:53.474Z,22.40
2023-09-02T19:53:35.264Z,22.40
2023-09-02T19:57:17.090Z,22.20
2023-09-02T20:00:58.855Z,22.20
2023-09-02T20:04:40.777Z,22.10
2023-09-02T20:08:22.808Z,22.00
2023-09-02T20:12:04.983Z,21.90
2023-09-02T20:15:56.229Z,21.80
2023-09-02T20:19:39.139Z,21.80
2023-09-02T20:23:20.943Z,21.70
2023-09-02T20:27:04.915Z,21.60
2023-09-02T20:30:47.072Z,21.50
2023-09-02T20:34:29.034Z,21.40
2023-09-02T20:38:11.712Z,21.30
2023-09-02T20:41:53.845Z,21.20
2023-09-02T20:45:40.360Z,21.10
2023-09-02T20:49:22.196Z,20.90
2023-09-02T20:53:04.201Z,20.80
2023-09-02T20:56:46.191Z,20.70
2023-09-02T21:00:28.804Z,20.60
2023-09-02T21:04:15.255Z,20.50
2023-09-02T21:08:02.717Z,20.40
2023-09-02T21:11:44.747Z,20.30
2023-09-02T21:15:26.705Z,20.20
2023-09-02T21:19:08.510Z,20.10
2023-09-02T21:22:50.415Z,20.00
2023-09-02T21:26:32.344Z,20.00
2023-09-02T21:30:14.278Z,20.00
2023-09-02T21:33:56.370Z,19.90
2023-09-02T21:37:38.292Z,19.90
2023-09-02T21:41:20.106Z,19.90
2023-09-02T21:45:01.873Z,19.80
2023-09-02T21:48:43.736Z,19.80
2023-09-02T21:52:25.598Z,19.70
2023-09-02T21:56:07.695Z,19.70
2023-09-02T21:59:49.502Z,19.60
2023-09-02T22:03:32.907Z,19.50
2023-09-02T22:07:14.956Z,19.50
2023-09-02T22:10:57.488Z,19.40
2023-09-02T22:14:39.350Z,19.40
2023-09-02T22:18:22.992Z,19.30
2023-09-02T22:22:05.044Z,19.20
2023-09-02T22:25:48.012Z,19.10
2023-09-02T22:29:29.902Z,19.00
2023-09-02T22:33:12.618Z,18.90
2023-09-02T22:36:54.462Z,18.90
2023-09-02T22:40:36.260Z,18.80
2023-09-02T22:44:19.218Z,18.80
2023-09-02T22:48:01.078Z,18.70
2023-09-02T22:51:42.885Z,18.70
2023-09-02T22:55:24.644Z,18.70
2023-09-02T22:59:06.463Z,18.60
2023-09-02T23:02:48.642Z,18.60
2023-09-02T23:06:30.516Z,18.60
2023-09-02T23:10:12.596Z,18.50
2023-09-02T23:13:54.439Z,18.50
2023-09-02T23:17:36.302Z,18.40
2023-09-02T23:21:18.336Z,18.40
2023-09-02T23:25:01.315Z,18.30
2023-09-02T23:28:43.167Z,18.20
2023-09-02T23:32:27.781Z,18.20
2023-09-02T23:36:09.673Z,18.10
2023-09-02T23:39:51.981Z,18.00
2023-09-02T23:43:33.967Z,17.90
2023-09-02T23:47:16.140Z,17.90
2023-09-02T23:50:59.175Z,17.90
2023-09-02T23:54:41.741Z,17.80
2023-09-02T23:58:23.554Z,17.80
